Monday, July 23, 2018, 2:13 AM EDT
Back to Local

KAVP, Wilkes-barre/scranton International

Location: Pittston, PA, United States Lat: 41.333
Local Time: 2:13 AM EDT ( 6:13 GMT) Lon: -75.733
Time Zone: US/Eastern Elev: 961 ft

Show me the last for .
Show Decoded

2018-07-23 01:54 METAR KAVP 230554Z 02005KT 10SM CLR 20/19 A2999 RMK AO2 SLP147 60030 T02000189
                 10228 20200 50000 =
2018-07-23 00:54 METAR KAVP 230454Z 00000KT 10SM FEW055 21/19 A3001 RMK AO2 SLP152 T02110189
                 402720172 =
2018-07-22 23:54 METAR KAVP 230354Z 11004KT 10SM FEW031 SCT039 SCT049 22/19 A2999 RMK AO2 LTG
                 DSNT NE RAE39 SLP147 P0005 T02170194 =
2018-07-22 22:54 METAR KAVP 230254Z 10003KT 5SM +RA BR SCT035 BKN060 BKN070 22/21 A2999 RMK AO2
                 LTG DSNT NE-S RAE0157B18 SLP147 P0000 60025 T02170206 51013 =
2018-07-22 21:54 METAR KAVP 230154Z VRB04KT 10SM -RA FEW029 SCT045 BKN090 22/21 A2999 RMK AO2
                 RAE04B47 SLP146 P0000 T02220206 =
2018-07-22 20:54 METAR KAVP 230054Z 04005KT 10SM -RA CLR 22/21 A2996 RMK AO2 LTG DSNT SE RAE26B49
                 TSB05E24 SLP137 P0025 T02220206 =
2018-07-22 20:30 METAR KAVP 230030Z VRB03KT 10SM FEW043 SCT100 SCT120 22/20 A2995 RMK AO2 LTG
                 DSNT SE AND S RAE26 TSB05E24 P0025 T02170200 =
2018-07-22 20:17 METAR KAVP 230017Z VRB05G21KT 3SM -TSRA BR BKN040 BKN080 BKN100 22/19 A2995 RMK
                 AO2 TSB05 P0025 T02170194 =
2018-07-22 20:11 METAR KAVP 230011Z 13009G21KT 110V170 1 1/4SM +TSRA BR BKN040 BKN080 OVC100
                 22/21 A2995 RMK AO2 LTG DSNT SE AND S AND NW TSB05 P0020 T02220206 =
2018-07-22 20:03 METAR KAVP 230003Z VRB04KT 3/4SM R04/4500VP6000FT VCTS +RA BR BKN034 BKN100
                 22/21 A2995 RMK AO2 LTG DSNT SE AND S AND NW P0010 T02170211 =
2018-07-22 19:54 METAR KAVP 222354Z 15006KT 1 3/4SM R04/4500VP6000FT +RA BR FEW022 BKN039 OVC100
                 22/21 A2995 RMK AO2 RAB04 SLP134 P0008 60023 T02220206 10272 20222 51012 =
2018-07-22 19:49 METAR KAVP 222349Z 14007G14KT 4SM VCTS -RA BR FEW024 BKN070 OVC100 23/21 A2995
                 RMK AO2 RAB04 P0007 =
2018-07-22 19:37 METAR KAVP 222337Z 14006G18KT 2 1/2SM R04/6000VP6000FT VCTS RA BR SCT026 BKN045
                 OVC095 23/21 A2994 RMK AO2 RAB04 P0001 T02280206 =
2018-07-22 18:54 METAR KAVP 222254Z 05006KT 10SM FEW110 23/21 A2993 RMK AO2 LTG DSNT SW AND W
                 SLP126 T02280211 =
2018-07-22 17:54 METAR KAVP 222154Z AUTO 04005KT 10SM FEW036 FEW047 BKN110 24/21 A2992 RMK AO2
                 RAE25 SLP122 P0009 T02390211 =
2018-07-22 17:20 METAR KAVP 222120Z VRB04KT 7SM -RA FEW036 BKN090 OVC110 23/22 A2993 RMK AO2
                 P0009 T02280217 =
2018-07-22 17:08 METAR KAVP 222108Z 07004KT 2SM R04/4000VP6000FT +RA BR FEW047 BKN080 OVC090
                 23/21 A2992 =
2018-07-22 16:54 METAR KAVP 222054Z 00000KT 4SM RA BKN090 OVC110 23/21 A2993 RMK AO2 RAB32 SLP127
                 P0001 60006 T02330206 53007 =
2018-07-22 15:54 METAR KAVP 221954Z 00000KT 8SM FEW050 SCT075 BKN090 23/21 A2992 RMK AO2 RAE54
                 SLP126 P0005 T02330211 =
2018-07-22 14:54 METAR KAVP 221854Z 20005KT 9SM -RA SCT036 BKN060 OVC090 26/19 A2991 RMK AO2
                 RAB54 SLP122 P0000 T02560189 =
2018-07-22 13:54 METAR KAVP 221754Z VRB06KT 10SM SCT036 26/18 A2991 RMK AO2 SLP120 60000
                 T02610178 10267 20211 50016 =
2018-07-22 13:27 METAR KAVP 221727Z 15007G18KT 100V210 10SM SCT028 BKN034 26/18 A2991 RMK AO2
                 T02560178 =
2018-07-22 12:54 METAR KAVP 221654Z VRB05G15KT 10SM BKN025 OVC031 24/18 A2991 RMK AO2 SLP122
                 T02390178 =
2018-07-22 11:54 METAR KAVP 221554Z VRB04KT 10SM OVC026 25/18 A2989 RMK AO2 SLP114 T02500183 =
2018-07-22 10:54 METAR KAVP 221454Z 16007KT 060V200 10SM BKN023 24/18 A2986 RMK AO2 SLP104 60000
                 T02440183 51034 =
2018-07-22 10:43 METAR KAVP 221443Z VRB06KT 10SM BKN022 24/18 A2985 RMK AO2 T02390183 =
2018-07-22 10:27 METAR KAVP 221427Z 16008KT 130V200 10SM SCT021 24/18 A2984 RMK AO2 T02390183 =
2018-07-22 09:54 METAR KAVP 221354Z VRB06KT 10SM BKN021 23/18 A2983 RMK AO2 SLP095 T02330183 =
2018-07-22 09:38 METAR KAVP 221338Z VRB06G16KT 10SM SCT020 23/18 A2982 =
2018-07-22 09:15 METAR KAVP 221315Z 20009G17KT 10SM BKN021 22/18 A2982 RMK AO2 T02170178 =
2018-07-22 08:54 METAR KAVP 221254Z 18010G19KT 10SM FEW050 SCT060 SCT120 22/18 A2981 RMK AO2
                 RAB04E15 SLP086 P0000 T02170178 =
2018-07-22 08:32 METAR KAVP 221232Z 18009G17KT 10SM FEW015 SCT019 BKN049 22/19 A2979 RMK AO2
                 RAB04E15 P0000 T02170189 =
2018-07-22 07:54 METAR KAVP 221154Z VRB04KT 7SM BKN019 OVC023 23/20 A2976 RMK AO2 SLP069 60014
                 70053 T02280200 10228 20172 53025 =
2018-07-22 07:09 METAR KAVP 221109Z 12008KT 080V170 8SM SCT021 BKN027 OVC036 22/19 A2971 RMK AO2
                 T02170194 =
2018-07-22 06:54 METAR KAVP 221054Z 14006G17KT 7SM R04/3500VP6000FT SCT021 BKN030 OVC040 22/19
                 A2971 RMK AO2 RAE29 SLP052 P0001 T02170194 =
2018-07-22 06:23 METAR KAVP 221023Z 11008G21KT 080V180 5SM -RA BR FEW016 BKN021 OVC035 22/19
                 A2969 RMK AO2 P0001 T02170194 =
2018-07-22 06:14 METAR KAVP 221014Z 12011G20KT 070V140 5SM -RA BR SCT019 SCT024 OVC037 22/19
                 A2969 RMK AO2 P0000 T02170194 =
2018-07-22 05:54 METAR KAVP 220954Z 09005KT 5SM -RA BR SCT019 OVC027 21/19 A2969 RMK AO2 SLP046
                 P0002 T02060189 =
2018-07-22 05:16 METAR KAVP 220916Z 09008G15KT 4SM -RA BR SCT023 OVC031 20/18 A2969 =
2018-07-22 04:54 METAR KAVP 220854Z 08011G19KT 050V120 9SM -RA OVC021 20/18 A2968 RMK AO2 SLP043
                 P0000 60011 T02000178 56015 =
2018-07-22 03:54 METAR KAVP 220754Z VRB05KT 5SM -RA BR FEW016 OVC026 19/17 A2970 RMK AO2 SLP049
                 P0002 T01890172 =
2018-07-22 03:51 METAR KAVP 220751Z 06007KT 040V110 5SM -RA BR SCT015 OVC026 19/17 A2970 RMK AO2
                 P0002 =
2018-07-22 02:50 METAR KAVP 220650Z 09010G18KT 6SM -RA BR SCT014 SCT021 OVC036 18/16 A2973 RMK
                 AO2 LTG DSNT SW RAB0556 SLP059 P0009 T01780161 =
2018-07-22 02:49 METAR KAVP 220649Z 08008G18KT 040V110 6SM -RA BR SCT014 SCT021 OVC036 18/16
                 A2973 RMK AO2 LTG DSNT SW RAB0556 P0009 =
2018-07-22 02:42 METAR KAVP 220642Z 06013G18KT 2 1/2SM R04/5500VP6000FT RA BR BKN016 BKN021
                 OVC025 17/16 A2973 RMK AO2 RAB0556 P0008 T01720161 =

Support USWX by starting your Amazon purchase here.